createdAt,value
2023-03-04T00:03:31.980Z,5.50
2023-03-04T00:07:40.604Z,5.50
2023-03-04T00:11:49.169Z,5.60
2023-03-04T00:15:57.963Z,5.50
2023-03-04T00:20:07.239Z,5.50
2023-03-04T00:24:15.842Z,5.50
2023-03-04T00:28:24.422Z,5.40
2023-03-04T00:32:33.025Z,5.40
2023-03-04T00:36:43.218Z,5.40
2023-03-04T00:40:51.782Z,5.50
2023-03-04T00:45:00.423Z,5.60
2023-03-04T00:49:09.038Z,5.50
2023-03-04T00:53:17.669Z,5.60
2023-03-04T00:57:26.194Z,5.50
2023-03-04T01:01:34.871Z,5.50
2023-03-04T01:05:43.450Z,5.50
2023-03-04T01:09:51.976Z,5.50
2023-03-04T01:14:00.703Z,5.50
2023-03-04T01:18:09.578Z,5.50
2023-03-04T01:22:19.193Z,5.50
2023-03-04T01:26:27.825Z,5.60
2023-03-04T01:30:36.511Z,5.60
2023-03-04T01:34:45.182Z,5.50
2023-03-04T01:38:53.808Z,5.60
2023-03-04T01:43:02.543Z,5.60
2023-03-04T01:47:11.273Z,5.50
2023-03-04T01:51:21.757Z,5.60
2023-03-04T01:55:31.369Z,5.50
2023-03-04T01:59:41.378Z,5.50
2023-03-04T02:03:49.996Z,5.50
2023-03-04T02:08:01.487Z,5.60
2023-03-04T02:12:09.998Z,5.50
2023-03-04T02:16:18.812Z,5.50
2023-03-04T02:20:33.410Z,5.40
2023-03-04T02:24:56.992Z,5.40
2023-03-04T02:29:06.035Z,5.30
2023-03-04T02:33:17.783Z,5.40
2023-03-04T02:37:26.360Z,5.40
2023-03-04T02:41:35.421Z,5.60
2023-03-04T02:50:00.740Z,5.40
2023-03-04T02:54:39.366Z,5.40
2023-03-04T02:58:47.879Z,5.50
2023-03-04T03:02:57.118Z,5.60
2023-03-04T03:07:06.414Z,5.50
2023-03-04T03:11:15.008Z,5.50
2023-03-04T03:15:23.948Z,5.50
2023-03-04T03:19:32.469Z,5.50
2023-03-04T03:23:41.096Z,5.40
2023-03-04T03:27:49.724Z,5.50
2023-03-04T03:31:58.795Z,5.60
2023-03-04T03:36:07.958Z,5.40
2023-03-04T03:40:16.957Z,5.40
2023-03-04T03:44:25.671Z,5.40
2023-03-04T03:48:34.306Z,5.40
2023-03-04T03:52:49.875Z,5.40
2023-03-04T03:56:58.529Z,5.40
2023-03-04T04:01:07.151Z,5.40
2023-03-04T04:05:15.784Z,5.50
2023-03-04T04:09:24.410Z,5.50
2023-03-04T04:13:32.937Z,5.50
2023-03-04T04:17:41.575Z,5.40
2023-03-04T04:21:50.202Z,5.50
2023-03-04T04:25:59.253Z,5.60
2023-03-04T04:30:08.633Z,5.60
2023-03-04T04:34:17.414Z,5.40
2023-03-04T04:38:26.043Z,5.40
2023-03-04T04:42:34.765Z,5.50
2023-03-04T04:46:43.617Z,5.60
2023-03-04T04:50:56.730Z,5.60
2023-03-04T04:55:05.813Z,5.40
2023-03-04T04:59:14.703Z,5.40
2023-03-04T05:03:25.260Z,5.30
2023-03-04T05:07:33.910Z,5.30
2023-03-04T05:11:42.544Z,5.40
2023-03-04T05:15:53.392Z,5.50
2023-03-04T05:20:02.155Z,5.50
2023-03-04T05:24:10.784Z,5.50
2023-03-04T05:28:20.234Z,5.50
2023-03-04T05:32:29.443Z,5.40
2023-03-04T05:36:38.313Z,5.50
2023-03-04T05:40:47.555Z,5.40
2023-03-04T05:44:56.117Z,5.50
2023-03-04T05:49:04.712Z,5.60
2023-03-04T05:53:14.180Z,5.40
2023-03-04T05:57:22.792Z,5.60
2023-03-04T06:01:31.627Z,5.40
2023-03-04T06:05:40.246Z,5.40
2023-03-04T06:09:48.838Z,5.60
2023-03-04T06:13:57.575Z,5.50
2023-03-04T06:18:07.251Z,5.40
2023-03-04T06:22:15.882Z,5.30
2023-03-04T06:26:24.456Z,5.40
2023-03-04T06:30:33.018Z,5.40
2023-03-04T06:34:41.571Z,5.40
2023-03-04T06:38:51.060Z,5.40
2023-03-04T06:42:59.614Z,5.40
2023-03-04T06:47:08.725Z,5.50
2023-03-04T06:51:18.035Z,5.70
2023-03-04T06:55:26.964Z,5.70
2023-03-04T06:59:54.796Z,5.60
2023-03-04T07:04:03.807Z,5.50
2023-03-04T07:08:12.509Z,5.50
2023-03-04T07:12:21.040Z,5.40
2023-03-04T07:16:29.812Z,5.50
2023-03-04T07:20:38.499Z,5.40
2023-03-04T07:25:07.148Z,5.50
2023-03-04T07:29:15.927Z,5.40
2023-03-04T07:33:25.376Z,5.40
2023-03-04T07:37:34.002Z,5.60
2023-03-04T07:41:42.819Z,5.50
2023-03-04T07:45:51.410Z,5.50
2023-03-04T07:49:59.994Z,5.60
2023-03-04T07:54:08.632Z,5.40
2023-03-04T07:58:18.858Z,5.40
2023-03-04T08:02:27.520Z,5.60
2023-03-04T08:06:36.443Z,5.80
2023-03-04T08:10:45.705Z,5.70
2023-03-04T08:14:54.224Z,5.80
2023-03-04T08:19:03.982Z,5.90
2023-03-04T08:23:12.477Z,6.00
2023-03-04T08:27:21.747Z,6.00
2023-03-04T08:31:30.399Z,6.00
2023-03-04T08:35:41.119Z,6.20
2023-03-04T08:39:49.884Z,6.30
2023-03-04T08:43:58.616Z,6.30
2023-03-04T08:48:07.597Z,6.40
2023-03-04T08:52:16.180Z,6.50
2023-03-04T08:56:24.809Z,6.60
2023-03-04T09:00:36.105Z,6.40
2023-03-04T09:04:44.736Z,6.50
2023-03-04T09:08:53.473Z,6.60
2023-03-04T09:13:02.091Z,6.60
2023-03-04T09:17:11.275Z,6.50
2023-03-04T09:21:19.858Z,6.40
2023-03-04T09:25:28.771Z,6.60
2023-03-04T09:29:37.339Z,6.70
2023-03-04T09:33:46.069Z,6.70
2023-03-04T09:37:54.600Z,7.10
2023-03-04T09:42:05.013Z,7.00
2023-03-04T09:46:25.203Z,7.20
2023-03-04T09:50:37.099Z,7.20
2023-03-04T09:55:05.341Z,7.20
2023-03-04T09:59:19.737Z,7.30
2023-03-04T10:03:49.504Z,7.60
2023-03-04T10:08:01.549Z,7.50
2023-03-04T10:12:13.170Z,7.30
2023-03-04T10:16:24.862Z,7.20
2023-03-04T10:20:54.968Z,7.20
2023-03-04T10:25:20.136Z,7.40
2023-03-04T10:29:32.040Z,7.40
2023-03-04T10:33:41.643Z,7.40
2023-03-04T10:37:52.583Z,7.70
2023-03-04T10:42:04.517Z,7.60
2023-03-04T10:46:13.539Z,7.60
2023-03-04T10:50:41.476Z,7.60
2023-03-04T10:54:53.440Z,7.70
2023-03-04T10:59:36.181Z,7.80
2023-03-04T11:04:05.670Z,8.00
2023-03-04T11:08:33.665Z,8.00
2023-03-04T11:12:42.293Z,8.30
2023-03-04T11:16:59.386Z,8.30
2023-03-04T11:21:09.954Z,8.20
2023-03-04T11:25:30.199Z,8.20
2023-03-04T11:29:47.287Z,8.10
2023-03-04T11:33:58.920Z,8.10
2023-03-04T11:38:19.744Z,8.20
2023-03-04T11:42:34.422Z,8.10
2023-03-04T11:47:09.681Z,8.10
2023-03-04T11:51:42.707Z,8.20
2023-03-04T11:55:56.186Z,8.20
2023-03-04T12:00:28.314Z,8.10
2023-03-04T12:04:45.241Z,8.10
2023-03-04T12:08:59.506Z,8.00
2023-03-04T12:13:46.941Z,8.00
2023-03-04T12:18:32.223Z,8.00
2023-03-04T12:22:49.650Z,8.10
2023-03-04T12:27:10.577Z,8.00
2023-03-04T12:31:31.213Z,8.10
2023-03-04T12:36:00.934Z,7.90
2023-03-04T12:40:33.903Z,7.90
2023-03-04T12:45:20.417Z,7.90
2023-03-04T12:49:51.695Z,7.80
2023-03-04T12:54:05.952Z,7.70
2023-03-04T12:58:23.546Z,7.70
2023-03-04T13:02:54.117Z,7.90
2023-03-04T13:07:12.911Z,8.00
2023-03-04T13:11:31.153Z,8.00
2023-03-04T13:15:40.262Z,8.10
2023-03-04T13:19:55.860Z,8.20
2023-03-04T13:24:07.563Z,8.10
2023-03-04T13:28:24.367Z,8.10
2023-03-04T13:32:43.231Z,8.00
2023-03-04T13:36:56.911Z,8.10
2023-03-04T13:41:26.643Z,8.00
2023-03-04T13:45:54.715Z,7.80
2023-03-04T13:50:26.281Z,7.70
2023-03-04T13:54:35.316Z,7.50
2023-03-04T13:59:29.642Z,7.40
2023-03-04T14:03:39.092Z,7.30
2023-03-04T14:07:47.797Z,7.30
2023-03-04T14:12:05.546Z,7.40
2023-03-04T14:16:35.234Z,7.60
2023-03-04T14:20:46.881Z,7.50
2023-03-04T14:25:04.605Z,7.60
2023-03-04T14:29:31.292Z,7.80
2023-03-04T14:33:41.365Z,7.80
2023-03-04T14:37:58.749Z,7.80
2023-03-04T14:46:44.968Z,7.90
2023-03-04T14:50:55.633Z,7.90
2023-03-04T14:55:18.818Z,7.80
2023-03-04T14:59:33.028Z,7.80
2023-03-04T15:03:46.602Z,7.80
2023-03-04T15:08:18.761Z,7.70
2023-03-04T15:12:32.951Z,7.50
2023-03-04T15:16:56.770Z,7.50
2023-03-04T15:21:23.287Z,7.60
2023-03-04T15:25:32.203Z,7.40
2023-03-04T15:29:40.916Z,7.40
2023-03-04T15:33:49.970Z,7.30
2023-03-04T15:37:59.232Z,7.30
2023-03-04T15:42:11.348Z,7.30
2023-03-04T15:46:20.302Z,7.40
2023-03-04T15:50:30.843Z,7.30
2023-03-04T15:54:39.548Z,7.20
2023-03-04T15:58:56.673Z,7.20
2023-03-04T16:03:25.989Z,7.20
2023-03-04T16:07:35.720Z,7.40
2023-03-04T16:11:47.597Z,7.40
2023-03-04T16:15:56.378Z,7.20
2023-03-04T16:20:05.471Z,7.40
2023-03-04T16:24:17.064Z,7.40
2023-03-04T16:28:25.611Z,7.60
2023-03-04T16:32:35.090Z,7.50
2023-03-04T16:36:43.864Z,7.50
2023-03-04T16:40:52.691Z,7.50
2023-03-04T16:45:24.036Z,7.50
2023-03-04T16:49:32.296Z,7.50
2023-03-04T16:53:42.886Z,7.40
2023-03-04T16:57:52.285Z,7.40
2023-03-04T17:02:00.860Z,7.40
2023-03-04T17:06:11.580Z,7.40
2023-03-04T17:10:21.370Z,7.40
2023-03-04T17:14:49.308Z,7.20
2023-03-04T17:19:17.543Z,7.20
2023-03-04T17:23:28.052Z,7.20
2023-03-04T17:27:37.405Z,7.20
2023-03-04T17:31:46.065Z,7.20
2023-03-04T17:35:56.141Z,7.30
2023-03-04T17:40:06.475Z,7.30
2023-03-04T17:44:15.405Z,7.30
2023-03-04T17:48:24.032Z,7.30
2023-03-04T17:52:32.663Z,7.30
2023-03-04T17:56:43.460Z,7.20
2023-03-04T18:00:54.204Z,7.20
2023-03-04T18:05:06.782Z,7.10
2023-03-04T18:09:15.471Z,6.90
2023-03-04T18:13:24.099Z,6.90
2023-03-04T18:17:32.682Z,6.90
2023-03-04T18:21:41.206Z,6.80
2023-03-04T18:25:49.749Z,6.90
2023-03-04T18:29:58.652Z,6.90
2023-03-04T18:34:07.194Z,6.80
2023-03-04T18:38:16.286Z,6.90
2023-03-04T18:42:24.812Z,6.90
2023-03-04T18:46:45.119Z,6.70
2023-03-04T18:50:55.808Z,6.80
2023-03-04T18:55:04.522Z,6.90
2023-03-04T18:59:16.221Z,6.80
2023-03-04T19:03:24.952Z,6.60
2023-03-04T19:07:33.580Z,6.60
2023-03-04T19:11:42.208Z,6.70
2023-03-04T19:15:54.966Z,6.80
2023-03-04T19:20:05.271Z,6.80
2023-03-04T19:24:13.938Z,6.90
2023-03-04T19:28:24.316Z,6.70
2023-03-04T19:32:33.548Z,6.60
2023-03-04T19:36:42.136Z,6.50
2023-03-04T19:40:50.804Z,6.60
2023-03-04T19:45:00.142Z,6.70
2023-03-04T19:49:10.036Z,6.70
2023-03-04T19:53:18.777Z,6.60
2023-03-04T19:57:27.539Z,6.50
2023-03-04T20:01:38.152Z,6.40
2023-03-04T20:05:46.657Z,6.50
2023-03-04T20:09:58.299Z,6.50
2023-03-04T20:14:07.101Z,6.60
2023-03-04T20:18:15.597Z,6.50
2023-03-04T20:22:24.154Z,6.50
2023-03-04T20:26:33.495Z,6.50
2023-03-04T20:30:42.000Z,6.40
2023-03-04T20:34:52.361Z,6.40
2023-03-04T20:39:03.595Z,6.20
2023-03-04T20:43:12.410Z,6.20
2023-03-04T20:47:21.042Z,6.20
2023-03-04T20:51:31.592Z,6.00
2023-03-04T20:55:40.452Z,6.20
2023-03-04T20:59:50.694Z,6.10
2023-03-04T21:04:00.401Z,6.10
2023-03-04T21:08:10.016Z,6.00
2023-03-04T21:12:19.870Z,6.00
2023-03-04T21:16:32.905Z,6.00
2023-03-04T21:20:42.358Z,5.80
2023-03-04T21:24:51.135Z,5.90
2023-03-04T21:28:59.846Z,5.80
2023-03-04T21:33:10.161Z,5.90
2023-03-04T21:37:19.906Z,5.90
2023-03-04T21:41:30.479Z,5.90
2023-03-04T21:45:39.081Z,5.70
2023-03-04T21:49:48.010Z,5.80
2023-03-04T21:53:56.602Z,5.70
2023-03-04T21:58:05.267Z,5.60
2023-03-04T22:02:18.680Z,5.70
2023-03-04T22:06:29.686Z,5.80
2023-03-04T22:10:40.887Z,5.70
2023-03-04T22:14:49.414Z,5.70
2023-03-04T22:18:58.048Z,5.50
2023-03-04T22:23:07.098Z,5.60
2023-03-04T22:27:15.714Z,5.50
2023-03-04T22:31:30.542Z,5.40
2023-03-04T22:35:42.418Z,5.50
2023-03-04T22:39:51.025Z,5.60
2023-03-04T22:44:00.375Z,5.40
2023-03-04T22:48:09.006Z,5.40
2023-03-04T22:52:17.524Z,5.50
2023-03-04T22:56:26.301Z,5.40
2023-03-04T23:00:34.981Z,5.50
2023-03-04T23:04:43.610Z,5.40
2023-03-04T23:08:53.315Z,5.40
2023-03-04T23:13:01.880Z,5.40
2023-03-04T23:17:10.474Z,5.50
2023-03-04T23:21:21.982Z,5.50
2023-03-04T23:25:30.529Z,5.50
2023-03-04T23:29:39.078Z,5.50
2023-03-04T23:33:48.863Z,5.30
2023-03-04T23:38:16.803Z,5.30
2023-03-04T23:42:25.434Z,5.20
2023-03-04T23:46:34.067Z,5.30
2023-03-04T23:50:42.717Z,5.10
2023-03-04T23:54:51.419Z,5.20
2023-03-04T23:59:00.825Z,5.30
